Time;durP1;ratioP1;P1;durP2;ratioP2;P2;SDS_P1;SDS_P2;PMS_P1;PMS_P2;Temp;Humidity;BMP_temperature;BMP_pressure;BME280_temperature;BME280_humidity;BME280_pressure;Samples;Min_cycle;Max_cycle;Signal;HPM_P1;HPM_P2
2022/01/16 00:08:45;;;;;;;10.25;6.00;;;;;;;20.55;nan;101395.78;20427149;28;101895;-67
2022/01/16 00:18:49;;;;;;;14.60;6.65;;;;;;;20.53;nan;101402.09;20422406;28;98192;-67
2022/01/16 00:28:51;;;;;;;8.45;5.90;;;;;;;20.49;nan;101461.94;20422653;28;100832;-67
2022/01/16 00:38:53;;;;;;;9.77;5.93;;;;;;;20.45;nan;101423.59;20427014;28;98423;-68
2022/01/16 00:48:54;;;;;;;10.55;6.13;;;;;;;20.40;nan;101386.19;20420391;28;99662;-67
2022/01/16 00:58:55;;;;;;;13.05;6.38;;;;;;;20.37;nan;101400.34;20413047;28;99713;-67
2022/01/16 01:08:56;;;;;;;10.65;6.82;;;;;;;20.37;nan;101381.09;20414608;28;99644;-67
2022/01/16 01:18:56;;;;;;;11.60;6.82;;;;;;;20.31;nan;101327.91;20419934;28;97293;-67
2022/01/16 01:28:57;;;;;;;10.48;6.57;;;;;;;20.29;nan;101314.00;20415528;28;98173;-67
2022/01/16 01:38:57;;;;;;;12.30;6.65;;;;;;;20.27;nan;101405.28;20419034;28;98563;-67
2022/01/16 01:59:17;;;;;;;11.90;7.50;;;;;;;20.21;nan;101368.00;20416792;28;98914;-67
2022/01/16 02:09:18;;;;;;;12.20;7.30;;;;;;;20.17;nan;101384.88;20419326;28;97542;-67
2022/01/16 02:39:51;;;;;;;11.13;7.18;;;;;;;20.11;nan;101415.00;20414381;28;98644;-67
2022/01/16 02:49:53;;;;;;;13.18;8.07;;;;;;;20.07;nan;101414.31;20410283;28;102960;-68
2022/01/16 02:59:56;;;;;;;12.27;7.30;;;;;;;20.06;nan;101402.09;20406168;28;101577;-68
2022/01/16 03:10:19;;;;;;;11.60;7.60;;;;;;;20.04;nan;101403.97;20421512;28;98179;-68
2022/01/16 03:30:40;;;;;;;12.27;7.93;;;;;;;20.02;nan;101389.22;20409240;28;99558;-65
2022/01/16 03:40:41;;;;;;;10.75;7.50;;;;;;;20.00;nan;101376.16;20424801;28;99598;-68
2022/01/16 03:50:43;;;;;;;12.35;7.60;;;;;;;19.98;nan;101367.50;20368455;28;98280;-67
2022/01/16 04:00:44;;;;;;;12.90;8.05;;;;;;;19.97;nan;101365.84;20378026;28;98969;-67
2022/01/16 04:10:46;;;;;;;11.98;8.02;;;;;;;19.98;nan;101376.25;20373686;28;101339;-68
2022/01/16 04:20:46;;;;;;;11.80;7.97;;;;;;;19.95;nan;101379.03;20385914;28;101901;-68
2022/01/16 04:30:47;;;;;;;10.88;7.30;;;;;;;19.95;nan;101384.31;20375719;28;99816;-68
2022/01/16 04:51:17;;;;;;;9.82;7.20;;;;;;;19.90;nan;101365.31;20369561;28;100194;-68
2022/01/16 05:01:18;;;;;;;11.00;7.20;;;;;;;19.91;nan;101366.16;20419086;28;97813;-67
2022/01/16 05:11:25;;;;;;;11.57;7.55;;;;;;;19.94;nan;101350.22;20420312;28;97596;-68
2022/01/16 05:21:26;;;;;;;11.73;7.82;;;;;;;20.04;nan;101361.91;20418053;28;100850;-68
2022/01/16 05:31:28;;;;;;;13.32;7.60;;;;;;;20.12;nan;101362.31;20411555;28;100840;-68
2022/01/16 05:41:32;;;;;;;12.60;8.40;;;;;;;20.19;nan;101365.44;20416708;28;98083;-68
2022/01/16 05:51:32;;;;;;;12.00;7.80;;;;;;;20.23;nan;101382.75;20376200;28;98897;-68
2022/01/16 06:01:33;;;;;;;12.15;7.70;;;;;;;20.29;nan;101386.81;20370195;28;102345;-67
2022/01/16 06:11:33;;;;;;;12.27;7.72;;;;;;;20.32;nan;101394.50;20382822;28;99142;-68
2022/01/16 06:21:34;;;;;;;10.90;7.50;;;;;;;20.37;nan;101407.41;20377085;28;100903;-68
2022/01/16 06:31:35;;;;;;;9.05;6.93;;;;;;;20.43;nan;101404.41;20381349;28;100435;-68
2022/01/16 06:41:36;;;;;;;9.68;7.03;;;;;;;20.45;nan;101407.81;20366566;28;101933;-68
2022/01/16 06:51:37;;;;;;;9.63;6.32;;;;;;;20.48;nan;101405.84;20355996;28;101287;-68
2022/01/16 07:01:37;;;;;;;11.00;6.63;;;;;;;20.56;nan;101409.81;20398166;28;98804;-68
2022/01/16 07:11:38;;;;;;;14.13;8.45;;;;;;;20.11;nan;101399.22;20395635;28;102994;-67
2022/01/16 07:21:38;;;;;;;18.70;7.88;;;;;;;20.40;nan;101415.97;20378295;28;98771;-66
2022/01/16 07:31:39;;;;;;;14.63;7.60;;;;;;;20.66;nan;101433.81;20402402;28;97645;-65
2022/01/16 07:41:40;;;;;;;9.98;7.03;;;;;;;20.86;nan;101422.13;20410469;28;98984;-67
2022/01/16 07:51:40;;;;;;;9.57;6.68;;;;;;;21.04;nan;101428.06;20407272;28;99038;-68
2022/01/16 08:01:41;;;;;;;9.63;6.45;;;;;;;21.19;nan;101428.91;20404590;28;100661;-68
2022/01/16 08:11:41;;;;;;;11.57;6.40;;;;;;;21.30;nan;101415.09;20403750;28;101413;-68
2022/01/16 08:21:42;;;;;;;12.57;6.10;;;;;;;21.39;nan;101417.19;20418037;28;101574;-67
2022/01/16 08:31:42;;;;;;;9.35;6.32;;;;;;;21.46;nan;101405.31;20407950;28;100468;-67
2022/01/16 08:41:43;;;;;;;9.93;6.03;;;;;;;21.53;nan;101374.13;20408234;28;101889;-65
2022/01/16 08:51:44;;;;;;;9.45;6.55;;;;;;;21.61;nan;101360.53;20415733;28;100127;-68
2022/01/16 09:01:46;;;;;;;10.40;5.57;;;;;;;21.65;nan;101347.03;20430246;28;98616;-67
2022/01/16 09:11:47;;;;;;;7.70;5.60;;;;;;;21.72;nan;101336.94;20363895;28;98755;-67
2022/01/16 09:21:48;;;;;;;11.13;5.70;;;;;;;21.74;nan;101332.44;20398865;28;101346;-66
2022/01/16 09:31:51;;;;;;;14.10;6.90;;;;;;;21.76;nan;101327.88;20420693;28;99379;-66
2022/01/16 09:41:52;;;;;;;11.07;6.43;;;;;;;21.77;nan;101313.75;20413761;28;101697;-68
2022/01/16 09:51:52;;;;;;;15.00;7.05;;;;;;;21.79;nan;101309.25;20415101;28;97799;-68
2022/01/16 10:01:53;;;;;;;13.15;6.32;;;;;;;21.79;nan;101303.09;20421984;28;100140;-66
2022/01/16 10:11:59;;;;;;;10.43;5.97;;;;;;;21.85;nan;101286.88;20430529;28;100828;-66
2022/01/16 10:22:06;;;;;;;16.13;6.05;;;;;;;21.89;nan;101270.75;20413719;28;100747;-64
2022/01/16 10:32:17;;;;;;;11.15;5.60;;;;;;;21.94;nan;101254.66;20429707;28;100788;-64
2022/01/16 10:42:18;;;;;;;8.88;5.88;;;;;;;21.96;nan;101255.41;20398499;28;101340;-64
2022/01/16 10:52:18;;;;;;;18.67;6.63;;;;;;;22.00;nan;101246.31;20335213;28;98437;-64
2022/01/16 11:02:20;;;;;;;11.00;6.13;;;;;;;22.08;nan;101237.88;20316651;28;101898;-68
2022/01/16 11:12:22;;;;;;;14.13;6.65;;;;;;;22.13;nan;101227.03;20398778;28;99732;-68
2022/01/16 11:22:34;;;;;;;20.63;8.57;;;;;;;22.30;nan;101216.16;20385253;28;101819;-68
2022/01/16 11:32:34;;;;;;;20.90;8.83;;;;;;;22.49;nan;101220.19;20413266;28;98780;-69
2022/01/16 11:42:37;;;;;;;20.98;10.27;;;;;;;22.69;nan;101181.81;20404124;28;100388;-66
2022/01/16 11:52:39;;;;;;;17.95;10.05;;;;;;;22.84;nan;101172.81;20397824;28;100976;-67
2022/01/16 12:02:45;;;;;;;23.07;11.57;;;;;;;22.62;nan;101170.00;20410777;28;101721;-65
2022/01/16 12:12:45;;;;;;;18.33;9.98;;;;;;;22.88;nan;101152.31;20425665;28;101382;-68
2022/01/16 12:22:55;;;;;;;19.13;10.05;;;;;;;22.98;nan;101134.00;20434197;28;97566;-66
2022/01/16 12:33:10;;;;;;;14.68;8.93;;;;;;;23.03;nan;101126.56;20398252;28;98721;-68
2022/01/16 12:43:20;;;;;;;13.27;8.70;;;;;;;23.04;nan;101122.97;20384613;28;98937;-68
2022/01/16 12:53:35;;;;;;;13.45;8.65;;;;;;;23.03;nan;101127.41;20385302;28;98769;-67
2022/01/16 13:03:37;;;;;;;13.52;7.97;;;;;;;23.05;nan;101124.66;20388590;28;99172;-68
2022/01/16 13:13:37;;;;;;;13.20;8.20;;;;;;;23.07;nan;101106.03;20360624;28;99382;-69
2022/01/16 13:23:50;;;;;;;17.15;8.05;;;;;;;23.09;nan;101107.63;20344973;28;97918;-68
2022/01/16 13:34:32;;;;;;;12.07;8.10;;;;;;;23.05;nan;101100.06;20369523;28;101590;-69
2022/01/16 13:44:32;;;;;;;15.40;7.47;;;;;;;23.00;nan;101072.16;20375914;28;102220;-70
2022/01/16 13:54:33;;;;;;;16.45;7.75;;;;;;;22.98;nan;101071.44;20413369;28;98728;-69
2022/01/16 14:04:39;;;;;;;13.48;8.02;;;;;;;22.91;nan;101069.38;20414234;28;101843;-68
2022/01/16 14:14:39;;;;;;;13.23;7.95;;;;;;;22.81;nan;101048.94;20420313;28;101158;-68
2022/01/16 14:24:46;;;;;;;12.73;7.72;;;;;;;22.75;nan;101051.19;20420974;28;101529;-68
2022/01/16 14:34:49;;;;;;;12.32;7.60;;;;;;;22.66;nan;101048.25;20414589;28;98578;-69
2022/01/16 14:44:50;;;;;;;15.35;7.68;;;;;;;22.59;nan;101039.09;20428814;28;99510;-68
2022/01/16 14:54:52;;;;;;;15.20;7.78;;;;;;;22.52;nan;101032.59;20412432;28;98882;-67
2022/01/16 15:04:52;;;;;;;12.03;7.30;;;;;;;22.42;nan;101027.13;20415328;28;101595;-70
2022/01/16 15:14:54;;;;;;;14.73;8.30;;;;;;;22.33;nan;101012.78;20417355;28;102196;-66
2022/01/16 15:24:55;;;;;;;11.90;7.82;;;;;;;22.21;nan;101009.22;20427495;28;99220;-69
2022/01/16 15:34:56;;;;;;;15.70;8.25;;;;;;;22.11;nan;101036.41;20444636;28;98080;-71
2022/01/16 15:44:57;;;;;;;23.05;10.18;;;;;;;21.86;nan;101041.59;20413268;28;101814;-68
2022/01/16 15:54:57;;;;;;;14.23;9.77;;;;;;;21.84;nan;101064.59;20411430;28;101174;-69
2022/01/16 16:04:58;;;;;;;17.00;9.80;;;;;;;21.81;nan;101062.16;20409177;28;98592;-69
2022/01/16 16:15:00;;;;;;;15.57;9.38;;;;;;;21.79;nan;101050.03;20400482;28;98745;-69
2022/01/16 16:25:02;;;;;;;15.13;9.37;;;;;;;;;;20358608;28;97999;-68
2022/01/16 16:35:03;;;;;;;15.93;9.23;;;;;;;21.74;nan;101058.28;20436779;28;101622;-70
2022/01/16 16:45:05;;;;;;;13.93;9.02;;;;;;;21.70;nan;101055.00;20428392;28;99264;-70
2022/01/16 16:55:07;;;;;;;17.37;9.80;;;;;;;21.70;nan;101033.94;20420067;28;100859;-70
2022/01/16 17:05:09;;;;;;;22.13;12.52;;;;;;;21.67;nan;101018.31;20420816;28;100503;-69
2022/01/16 17:15:10;;;;;;;22.50;11.93;;;;;;;21.63;nan;101039.72;20434262;28;97976;-69
2022/01/16 17:25:12;;;;;;;17.17;11.45;;;;;;;21.59;nan;101050.47;20430694;28;100788;-71
2022/01/16 17:35:14;;;;;;;21.50;11.98;;;;;;;21.51;nan;101073.84;20419189;28;97975;-72
2022/01/16 17:45:15;;;;;;;20.63;11.97;;;;;;;21.54;nan;101055.16;20417792;28;98040;-70
2022/01/16 17:55:16;;;;;;;26.45;11.50;;;;;;;21.60;nan;101080.28;20409096;28;98876;-67
2022/01/16 18:05:17;;;;;;;67.18;41.80;;;;;;;21.67;nan;101065.75;20417081;28;97882;-68
2022/01/16 18:15:18;;;;;;;141.30;83.53;;;;;;;21.79;nan;101055.31;20419781;28;97411;-67
2022/01/16 18:25:20;;;;;;;134.52;81.13;;;;;;;21.91;nan;101044.75;20425451;28;98904;-68
2022/01/16 18:35:21;;;;;;;123.90;77.18;;;;;;;22.03;nan;101048.34;20410837;28;98364;-67
2022/01/16 18:45:23;;;;;;;118.35;75.82;;;;;;;22.05;nan;101035.84;20398667;28;101819;-66
2022/01/16 18:55:25;;;;;;;111.00;69.93;;;;;;;22.10;nan;101029.44;20402149;28;97829;-66
2022/01/16 19:05:25;;;;;;;102.50;63.95;;;;;;;22.12;nan;101033.66;20393189;28;101366;-66
2022/01/16 19:15:26;;;;;;;95.20;57.67;;;;;;;22.14;nan;101030.88;20393215;28;101280;-65
2022/01/16 19:25:27;;;;;;;83.60;53.70;;;;;;;22.16;nan;101029.00;20402163;28;101582;-65
2022/01/16 19:35:27;;;;;;;79.65;49.53;;;;;;;22.12;nan;101027.50;20390912;28;102673;-66
2022/01/16 19:45:31;;;;;;;64.43;41.27;;;;;;;21.88;nan;101025.66;20396613;28;99438;-65
2022/01/16 19:55:33;;;;;;;64.68;40.35;;;;;;;21.76;nan;101016.81;20401919;28;98036;-66
2022/01/16 20:05:34;;;;;;;60.33;38.07;;;;;;;21.67;nan;101039.41;20395189;28;102060;-66
2022/01/16 20:15:36;;;;;;;58.75;36.05;;;;;;;21.61;nan;101052.16;20409812;28;99006;-65
2022/01/16 20:25:40;;;;;;;55.33;35.08;;;;;;;21.51;nan;101076.47;20412689;28;98994;-66
2022/01/16 20:35:41;;;;;;;53.03;32.65;;;;;;;21.42;nan;101082.34;20413384;28;98277;-65
2022/01/16 20:45:42;;;;;;;48.75;31.85;;;;;;;21.35;nan;101073.16;20410239;28;98302;-65
2022/01/16 20:55:43;;;;;;;44.33;28.65;;;;;;;21.28;nan;101084.13;20412134;28;98250;-65
2022/01/16 21:05:43;;;;;;;43.15;28.10;;;;;;;21.23;nan;101085.41;20401989;28;97920;-65
2022/01/16 21:15:47;;;;;;;41.25;26.67;;;;;;;21.18;nan;101063.75;20411026;28;105893;-66
2022/01/16 21:25:52;;;;;;;43.60;26.98;;;;;;;21.10;nan;101033.53;20412703;28;101363;-64
2022/01/16 21:35:52;;;;;;;40.25;24.98;;;;;;;21.04;nan;101009.41;20408672;28;99780;-65
2022/01/16 21:45:54;;;;;;;37.22;24.70;;;;;;;20.99;nan;100999.16;20405466;28;98603;-66
2022/01/16 21:55:54;;;;;;;37.15;23.10;;;;;;;20.93;nan;100994.31;20409771;28;98247;-66
2022/01/16 22:05:56;;;;;;;37.03;22.88;;;;;;;20.90;nan;101002.44;20418509;28;98168;-65
2022/01/16 22:15:56;;;;;;;36.28;22.17;;;;;;;20.85;nan;100994.84;20401894;28;99073;-65
2022/01/16 22:25:57;;;;;;;32.10;21.13;;;;;;;20.79;nan;101000.50;20401346;28;98651;-66
2022/01/16 22:35:59;;;;;;;31.30;20.25;;;;;;;20.73;nan;100982.50;20382537;28;98165;-66
2022/01/16 22:46:02;;;;;;;28.30;19.17;;;;;;;20.70;nan;100987.91;20381100;28;101039;-65
2022/01/16 22:56:02;;;;;;;28.27;18.33;;;;;;;20.66;nan;100978.53;20348200;28;98446;-65
2022/01/16 23:06:05;;;;;;;25.25;17.38;;;;;;;20.67;nan;100980.25;20363712;28;101020;-65
2022/01/16 23:16:07;;;;;;;24.50;16.70;;;;;;;20.61;nan;100973.56;20401210;28;99279;-65
2022/01/16 23:26:08;;;;;;;23.80;16.13;;;;;;;20.56;nan;100965.16;20396686;28;101439;-66
2022/01/16 23:36:09;;;;;;;22.10;15.00;;;;;;;20.54;nan;100959.97;20400945;28;100548;-66
2022/01/16 23:46:19;;;;;;;23.17;15.52;;;;;;;20.49;nan;100954.16;20397664;28;101959;-66
2022/01/16 23:56:20;;;;;;;22.88;15.40;;;;;;;20.46;nan;100949.13;20402522;28;102057;-66
